createdAt,value
2017-08-10T00:00:40.848Z,0
2017-08-10T00:01:42.278Z,0
2017-08-10T00:02:43.728Z,0
2017-08-10T00:03:45.234Z,0
2017-08-10T00:04:46.656Z,0
2017-08-10T00:05:48.124Z,0
2017-08-10T00:06:49.548Z,0
2017-08-10T00:07:50.973Z,0
2017-08-10T00:08:52.398Z,0
2017-08-10T00:09:53.820Z,0
2017-08-10T00:10:55.321Z,0
2017-08-10T00:11:56.752Z,0
2017-08-10T00:12:58.178Z,0
2017-08-10T00:13:59.674Z,0
2017-08-10T00:15:01.099Z,0
2017-08-10T00:16:02.527Z,0
2017-08-10T00:17:03.950Z,0
2017-08-10T00:18:05.414Z,0
2017-08-10T00:19:06.841Z,0
2017-08-10T00:20:08.267Z,0
2017-08-10T00:21:09.697Z,0
2017-08-10T00:22:11.122Z,0
2017-08-10T00:23:12.546Z,0
2017-08-10T00:24:13.973Z,0
2017-08-10T00:25:15.399Z,0
2017-08-10T00:26:16.823Z,0
2017-08-10T00:27:18.241Z,0
2017-08-10T00:28:19.666Z,0
2017-08-10T00:29:21.103Z,0
2017-08-10T00:30:22.529Z,0
2017-08-10T00:31:23.959Z,0
2017-08-10T00:32:25.390Z,0
2017-08-10T00:33:26.813Z,0
2017-08-10T00:34:28.227Z,0
2017-08-10T00:35:29.656Z,0
2017-08-10T00:36:31.081Z,0
2017-08-10T00:37:32.511Z,0
2017-08-10T00:38:33.927Z,0
2017-08-10T00:39:35.358Z,0
2017-08-10T00:40:36.777Z,0
2017-08-10T00:41:38.209Z,0
2017-08-10T00:42:39.664Z,0
2017-08-10T00:43:41.095Z,0
2017-08-10T00:44:42.519Z,0
2017-08-10T00:45:43.946Z,0
2017-08-10T00:46:45.368Z,0
2017-08-10T00:47:46.789Z,0
2017-08-10T00:48:48.218Z,0
2017-08-10T00:49:49.646Z,0
2017-08-10T00:50:51.072Z,0
2017-08-10T00:51:52.509Z,0
2017-08-10T00:52:53.934Z,0
2017-08-10T00:53:55.362Z,0
2017-08-10T00:54:56.778Z,0
2017-08-10T00:55:58.204Z,0
2017-08-10T00:56:59.626Z,0
2017-08-10T00:58:01.052Z,0
2017-08-10T00:59:02.477Z,0
2017-08-10T01:00:03.905Z,0
2017-08-10T01:01:05.325Z,0
2017-08-10T01:02:06.750Z,0
2017-08-10T01:03:08.172Z,0
2017-08-10T01:04:09.601Z,0
2017-08-10T01:05:11.018Z,0
2017-08-10T01:06:12.446Z,0
2017-08-10T01:07:13.877Z,0
2017-08-10T01:08:15.305Z,0
2017-08-10T01:09:16.726Z,0
2017-08-10T01:10:18.165Z,0
2017-08-10T01:11:19.587Z,0
2017-08-10T01:12:21.016Z,0
2017-08-10T01:13:22.452Z,0
2017-08-10T01:14:23.902Z,0
2017-08-10T01:15:25.333Z,0
2017-08-10T01:16:26.762Z,0
2017-08-10T01:17:28.190Z,0
2017-08-10T01:18:29.609Z,0
2017-08-10T01:19:31.029Z,0
2017-08-10T01:20:32.456Z,0
2017-08-10T01:21:33.876Z,0
2017-08-10T01:22:35.308Z,0
2017-08-10T01:23:36.749Z,0
2017-08-10T01:24:38.166Z,0
2017-08-10T01:25:39.598Z,0
2017-08-10T01:26:41.022Z,0
2017-08-10T01:27:42.446Z,0
2017-08-10T01:28:43.870Z,0
2017-08-10T01:29:45.289Z,0
2017-08-10T01:30:46.714Z,0
2017-08-10T01:31:48.138Z,0
2017-08-10T01:32:49.558Z,0
2017-08-10T01:33:50.986Z,0
2017-08-10T01:34:52.407Z,0
2017-08-10T01:35:53.837Z,0
2017-08-10T01:36:55.268Z,0
2017-08-10T01:37:56.693Z,0
2017-08-10T01:38:58.118Z,0
2017-08-10T01:39:59.544Z,0
2017-08-10T01:41:00.984Z,0
2017-08-10T01:42:02.398Z,0
2017-08-10T01:43:03.818Z,0
2017-08-10T01:44:05.244Z,0
2017-08-10T01:45:06.680Z,0
2017-08-10T01:46:08.096Z,0
2017-08-10T01:47:09.520Z,0
2017-08-10T01:48:10.957Z,0
2017-08-10T01:49:12.378Z,0
2017-08-10T01:50:13.797Z,0
2017-08-10T01:51:15.227Z,0
2017-08-10T01:52:16.647Z,0
2017-08-10T01:53:18.078Z,0
2017-08-10T01:54:19.495Z,0
2017-08-10T01:55:20.917Z,0
2017-08-10T01:56:22.348Z,0
2017-08-10T01:57:23.780Z,0
2017-08-10T01:58:25.196Z,0
2017-08-10T01:59:26.618Z,0
2017-08-10T02:00:28.044Z,0
2017-08-10T02:01:29.470Z,0
2017-08-10T02:02:30.893Z,0
2017-08-10T02:03:32.321Z,0
2017-08-10T02:04:33.742Z,0
2017-08-10T02:05:35.167Z,0
2017-08-10T02:06:36.592Z,0
2017-08-10T02:07:38.016Z,0
2017-08-10T02:08:39.445Z,0
2017-08-10T02:09:40.872Z,0
2017-08-10T02:10:42.293Z,0
2017-08-10T02:11:43.722Z,0
2017-08-10T02:12:45.233Z,0
2017-08-10T02:13:46.656Z,0
2017-08-10T02:14:48.079Z,0
2017-08-10T02:15:49.505Z,0
2017-08-10T02:16:50.927Z,0
2017-08-10T02:17:52.351Z,0
2017-08-10T02:18:53.908Z,0
2017-08-10T02:19:55.334Z,0
2017-08-10T02:20:56.754Z,0
2017-08-10T02:21:58.181Z,0
2017-08-10T02:22:59.681Z,0
2017-08-10T02:24:01.119Z,0
2017-08-10T02:25:02.547Z,0
2017-08-10T02:26:03.978Z,0
2017-08-10T02:27:05.403Z,0
2017-08-10T02:28:06.830Z,0
2017-08-10T02:29:08.262Z,0
2017-08-10T02:30:09.680Z,0
2017-08-10T02:31:11.103Z,0
2017-08-10T02:32:12.526Z,0
2017-08-10T02:33:13.950Z,0
2017-08-10T02:34:15.376Z,0
2017-08-10T02:35:16.801Z,0
2017-08-10T02:36:18.226Z,0
2017-08-10T02:37:19.657Z,0
2017-08-10T02:38:21.088Z,0
2017-08-10T02:39:22.509Z,0
2017-08-10T02:40:23.931Z,0
2017-08-10T02:41:25.369Z,0
2017-08-10T02:42:26.799Z,0
2017-08-10T02:43:28.260Z,0
2017-08-10T02:44:29.678Z,0
2017-08-10T02:45:31.108Z,0
2017-08-10T02:46:32.531Z,0
2017-08-10T02:47:33.955Z,0
2017-08-10T02:48:35.381Z,0
2017-08-10T02:49:36.804Z,0
2017-08-10T02:50:38.234Z,0
2017-08-10T02:51:39.647Z,0
2017-08-10T02:52:41.069Z,0
2017-08-10T02:53:42.495Z,0
2017-08-10T02:54:43.929Z,0
2017-08-10T02:55:45.351Z,0
2017-08-10T02:56:46.776Z,0
2017-08-10T02:57:48.196Z,0
2017-08-10T02:58:49.628Z,0
2017-08-10T02:59:51.051Z,0
2017-08-10T03:00:52.476Z,0
2017-08-10T03:01:53.905Z,0
2017-08-10T03:02:55.323Z,0
2017-08-10T03:03:56.748Z,0
2017-08-10T03:04:58.179Z,0
2017-08-10T03:05:59.597Z,0
2017-08-10T03:07:01.022Z,0
2017-08-10T03:08:02.447Z,0
2017-08-10T03:09:03.870Z,0
2017-08-10T03:10:05.299Z,0
2017-08-10T03:11:06.716Z,0
2017-08-10T03:12:08.139Z,0
2017-08-10T03:13:09.569Z,0
2017-08-10T03:14:10.996Z,0
2017-08-10T03:15:12.420Z,0
2017-08-10T03:16:13.846Z,0
2017-08-10T03:17:15.276Z,0
2017-08-10T03:18:16.701Z,0
2017-08-10T03:19:18.140Z,0
2017-08-10T03:20:19.576Z,0
2017-08-10T03:21:20.999Z,0
2017-08-10T03:22:22.428Z,0
2017-08-10T03:23:23.856Z,0
2017-08-10T03:24:25.279Z,0
2017-08-10T03:25:26.708Z,0
2017-08-10T03:26:28.131Z,0
2017-08-10T03:27:29.549Z,0
2017-08-10T03:28:30.970Z,0
2017-08-10T03:29:32.395Z,0
2017-08-10T03:30:33.816Z,0
2017-08-10T03:31:35.240Z,0
2017-08-10T03:32:36.655Z,0
2017-08-10T03:33:38.080Z,0
2017-08-10T03:34:39.509Z,0
2017-08-10T03:35:40.928Z,0
2017-08-10T03:36:42.356Z,0
2017-08-10T03:37:43.784Z,0
2017-08-10T03:38:45.209Z,0
2017-08-10T03:39:46.635Z,0
2017-08-10T03:40:48.060Z,0
2017-08-10T03:41:49.494Z,0
2017-08-10T03:42:50.921Z,0
2017-08-10T03:43:52.359Z,0
2017-08-10T03:44:53.797Z,4
2017-08-10T03:45:55.220Z,4
2017-08-10T03:46:56.647Z,4
2017-08-10T03:47:58.073Z,4
2017-08-10T03:48:59.497Z,0
2017-08-10T03:50:00.920Z,0
2017-08-10T03:51:02.352Z,0
2017-08-10T03:52:03.776Z,0
2017-08-10T03:53:05.194Z,4
2017-08-10T03:54:06.620Z,4
2017-08-10T03:55:08.054Z,4
2017-08-10T03:56:09.486Z,4
2017-08-10T03:57:10.906Z,0
2017-08-10T03:58:12.327Z,4
2017-08-10T03:59:13.755Z,4
2017-08-10T04:00:15.176Z,4
2017-08-10T04:01:16.598Z,4
2017-08-10T04:02:18.014Z,4
2017-08-10T04:03:19.436Z,4
2017-08-10T04:04:20.858Z,8
2017-08-10T04:05:22.284Z,4
2017-08-10T04:06:23.702Z,8
2017-08-10T04:07:25.125Z,8
2017-08-10T04:08:26.559Z,8
2017-08-10T04:09:27.979Z,8
2017-08-10T04:10:29.408Z,12
2017-08-10T04:11:30.838Z,12
2017-08-10T04:12:32.270Z,16
2017-08-10T04:13:33.700Z,16
2017-08-10T04:14:35.125Z,16
2017-08-10T04:15:36.546Z,16
2017-08-10T04:16:37.982Z,16
2017-08-10T04:17:39.502Z,16
2017-08-10T04:18:40.931Z,20
2017-08-10T04:19:42.359Z,20
2017-08-10T04:20:43.864Z,20
2017-08-10T04:21:45.307Z,24
2017-08-10T04:22:46.729Z,24
2017-08-10T04:23:48.156Z,28
2017-08-10T04:24:49.579Z,28
2017-08-10T04:25:51.004Z,32
2017-08-10T04:26:52.429Z,32
2017-08-10T04:27:53.867Z,36
2017-08-10T04:28:55.293Z,40
2017-08-10T04:29:56.720Z,44
2017-08-10T04:30:58.157Z,48
2017-08-10T04:31:59.607Z,52
2017-08-10T04:33:01.037Z,52
2017-08-10T04:34:02.469Z,52
2017-08-10T04:35:03.906Z,56
2017-08-10T04:36:05.409Z,60
2017-08-10T04:37:06.826Z,64
2017-08-10T04:38:08.260Z,68
2017-08-10T04:39:09.797Z,72
2017-08-10T04:40:11.239Z,80
2017-08-10T04:41:12.669Z,88
2017-08-10T04:42:14.100Z,96
2017-08-10T04:43:15.525Z,104
2017-08-10T04:44:16.961Z,108
2017-08-10T04:45:18.386Z,112
2017-08-10T04:46:19.815Z,112
2017-08-10T04:47:21.252Z,112
2017-08-10T04:48:22.677Z,112
2017-08-10T04:49:24.103Z,116
2017-08-10T04:50:25.586Z,116
2017-08-10T04:51:27.009Z,120
2017-08-10T04:52:28.435Z,120
2017-08-10T04:53:29.869Z,128
2017-08-10T04:54:31.301Z,132
2017-08-10T04:55:32.723Z,136
2017-08-10T04:56:34.147Z,140
2017-08-10T04:57:35.573Z,140
2017-08-10T04:58:37.004Z,144
2017-08-10T04:59:38.421Z,144
2017-08-10T05:00:39.850Z,148
2017-08-10T05:01:41.281Z,148
2017-08-10T05:02:42.706Z,148
2017-08-10T05:03:44.133Z,152
2017-08-10T05:04:45.557Z,156
2017-08-10T05:05:46.980Z,160
2017-08-10T05:06:48.414Z,168
2017-08-10T05:07:49.845Z,180
2017-08-10T05:08:51.273Z,188
2017-08-10T05:09:52.697Z,200
2017-08-10T05:10:54.136Z,212
2017-08-10T05:11:55.558Z,232
2017-08-10T05:12:56.989Z,252
2017-08-10T05:13:58.417Z,276
2017-08-10T05:14:59.837Z,300
2017-08-10T05:16:01.272Z,328
2017-08-10T05:17:02.705Z,360
2017-08-10T05:18:04.133Z,396
2017-08-10T05:19:05.560Z,432
2017-08-10T05:20:06.989Z,468
2017-08-10T05:21:08.417Z,504
2017-08-10T05:22:09.847Z,544
2017-08-10T05:23:11.271Z,580
2017-08-10T05:24:12.704Z,608
2017-08-10T05:25:14.128Z,628
2017-08-10T05:26:15.562Z,656
2017-08-10T05:27:16.987Z,684
2017-08-10T05:28:18.416Z,704
2017-08-10T05:29:19.842Z,720
2017-08-10T05:30:21.274Z,740
2017-08-10T05:31:22.696Z,764
2017-08-10T05:32:24.127Z,796
2017-08-10T05:33:25.555Z,824
2017-08-10T05:34:26.977Z,852
2017-08-10T05:35:28.406Z,876
2017-08-10T05:36:29.846Z,876
2017-08-10T05:37:31.272Z,868
2017-08-10T05:38:32.696Z,856
2017-08-10T05:39:34.123Z,840
2017-08-10T05:40:35.552Z,844
2017-08-10T05:41:36.983Z,816
2017-08-10T05:42:38.408Z,784
2017-08-10T05:43:39.839Z,744
2017-08-10T05:44:41.274Z,700
2017-08-10T05:45:42.700Z,692
2017-08-10T05:46:44.133Z,680
2017-08-10T05:47:45.566Z,660
2017-08-10T05:48:47.002Z,632
2017-08-10T05:49:48.430Z,624
2017-08-10T05:50:49.941Z,624
2017-08-10T05:51:51.363Z,632
2017-08-10T05:52:52.798Z,640
2017-08-10T05:53:54.220Z,640
2017-08-10T05:54:55.662Z,640
2017-08-10T05:55:57.093Z,632
2017-08-10T05:56:58.523Z,624
2017-08-10T05:57:59.984Z,628
2017-08-10T05:59:01.411Z,636
2017-08-10T06:00:02.843Z,660
2017-08-10T06:01:04.268Z,688
2017-08-10T06:02:05.798Z,720
2017-08-10T06:03:07.226Z,748
2017-08-10T06:04:08.655Z,772
2017-08-10T06:05:10.120Z,784
2017-08-10T06:06:11.551Z,804
2017-08-10T06:07:12.981Z,828
2017-08-10T06:08:14.410Z,864
2017-08-10T06:09:15.845Z,908
2017-08-10T06:10:17.281Z,960
2017-08-10T06:11:18.707Z,996
2017-08-10T06:12:20.144Z,1032
2017-08-10T06:13:21.584Z,1076
2017-08-10T06:14:23.018Z,1112
2017-08-10T06:15:24.447Z,1148
2017-08-10T06:16:25.957Z,1156
2017-08-10T06:17:27.391Z,1152
2017-08-10T06:18:28.819Z,1128
2017-08-10T06:19:30.248Z,1128
2017-08-10T06:20:31.671Z,1128
2017-08-10T06:21:33.207Z,1120
2017-08-10T06:22:34.632Z,1104
2017-08-10T06:23:36.097Z,1124
2017-08-10T06:24:37.600Z,1140
2017-08-10T06:25:39.033Z,1140
2017-08-10T06:26:40.464Z,1120
2017-08-10T06:27:41.897Z,1084
2017-08-10T06:28:43.329Z,1044
2017-08-10T06:29:44.764Z,992
2017-08-10T06:30:46.188Z,920
2017-08-10T06:31:47.621Z,836
2017-08-10T06:32:49.058Z,760
2017-08-10T06:33:50.491Z,692
2017-08-10T06:34:51.932Z,660
2017-08-10T06:35:53.362Z,680
2017-08-10T06:36:54.794Z,724
2017-08-10T06:37:56.223Z,776
2017-08-10T06:38:57.669Z,832
2017-08-10T06:39:59.083Z,876
2017-08-10T06:41:00.512Z,912
2017-08-10T06:42:01.942Z,940
2017-08-10T06:43:03.367Z,968
2017-08-10T06:44:04.803Z,988
2017-08-10T06:45:06.236Z,988
2017-08-10T06:46:07.667Z,948
2017-08-10T06:47:09.093Z,940
2017-08-10T06:48:10.514Z,964
2017-08-10T06:49:11.945Z,1016
2017-08-10T06:50:13.375Z,1076
2017-08-10T06:51:14.803Z,1132
2017-08-10T06:52:16.231Z,1172
2017-08-10T06:53:17.669Z,1220
2017-08-10T06:54:19.098Z,1248
2017-08-10T06:55:20.529Z,1260
2017-08-10T06:56:21.960Z,1244
2017-08-10T06:57:23.393Z,1232
2017-08-10T06:58:24.826Z,1204
2017-08-10T06:59:26.260Z,1156
2017-08-10T07:00:27.690Z,1100
2017-08-10T07:01:29.285Z,1036
2017-08-10T07:02:30.691Z,948
2017-08-10T07:03:32.122Z,900
2017-08-10T07:04:33.551Z,828
2017-08-10T07:05:34.985Z,816
2017-08-10T07:06:36.413Z,812
2017-08-10T07:07:37.841Z,840
2017-08-10T07:08:39.272Z,860
2017-08-10T07:09:40.700Z,876
2017-08-10T07:10:42.132Z,892
2017-08-10T07:11:43.568Z,912
2017-08-10T07:12:45.000Z,924
2017-08-10T07:13:46.433Z,928
2017-08-10T07:14:47.875Z,916
2017-08-10T07:15:49.299Z,884
2017-08-10T07:16:50.724Z,828
2017-08-10T07:17:52.157Z,760
2017-08-10T07:18:53.582Z,704
2017-08-10T07:19:55.014Z,672
2017-08-10T07:20:56.441Z,680
2017-08-10T07:21:57.866Z,716
2017-08-10T07:22:59.295Z,780
2017-08-10T07:24:00.722Z,820
2017-08-10T07:25:02.150Z,840
2017-08-10T07:26:03.582Z,848
2017-08-10T07:27:05.005Z,848
2017-08-10T07:28:06.441Z,852
2017-08-10T07:29:07.878Z,860
2017-08-10T07:30:09.311Z,864
2017-08-10T07:31:10.746Z,844
2017-08-10T07:32:12.170Z,820
2017-08-10T07:33:13.608Z,828
2017-08-10T07:34:15.063Z,844
2017-08-10T07:35:16.467Z,864
2017-08-10T07:36:17.899Z,872
2017-08-10T07:37:19.332Z,892
2017-08-10T07:38:20.762Z,912
2017-08-10T07:39:22.198Z,940
2017-08-10T07:40:23.628Z,964
2017-08-10T07:41:25.059Z,984
2017-08-10T07:42:26.500Z,1000
2017-08-10T07:43:27.930Z,992
2017-08-10T07:44:29.367Z,960
2017-08-10T07:45:30.808Z,816
2017-08-10T07:46:32.236Z,828
2017-08-10T07:47:33.662Z,888
2017-08-10T07:48:35.091Z,904
2017-08-10T07:49:36.522Z,944
2017-08-10T07:50:37.952Z,992
2017-08-10T07:51:39.384Z,1028
2017-08-10T07:52:40.817Z,1068
2017-08-10T07:53:42.239Z,1112
2017-08-10T07:54:43.673Z,1148
2017-08-10T07:55:45.103Z,1188
2017-08-10T07:56:46.537Z,1184
2017-08-10T07:57:47.972Z,1156
2017-08-10T07:58:49.401Z,1132
2017-08-10T07:59:50.833Z,1104
2017-08-10T08:00:52.265Z,1080
2017-08-10T08:01:53.692Z,1096
2017-08-10T08:02:55.127Z,1136
2017-08-10T08:03:56.571Z,1156
2017-08-10T08:04:58.003Z,1164
2017-08-10T08:05:59.445Z,1160
2017-08-10T08:07:00.870Z,1144
2017-08-10T08:08:02.309Z,1132
2017-08-10T08:09:03.739Z,1148
2017-08-10T08:10:05.176Z,1180
2017-08-10T08:11:06.603Z,1168
2017-08-10T08:12:08.032Z,1124
2017-08-10T08:13:09.466Z,1112
2017-08-10T08:14:10.901Z,1132
2017-08-10T08:15:12.332Z,1172
2017-08-10T08:16:13.763Z,1204
2017-08-10T08:17:15.184Z,1240
2017-08-10T08:18:16.620Z,1236
2017-08-10T08:19:18.053Z,1204
2017-08-10T08:20:19.476Z,1180
2017-08-10T08:21:20.906Z,1208
2017-08-10T08:22:22.333Z,1212
2017-08-10T08:23:24.334Z,1184
2017-08-10T08:24:25.766Z,1176
2017-08-10T08:25:27.207Z,1168
2017-08-10T08:26:28.632Z,1172
2017-08-10T08:27:30.091Z,1188
2017-08-10T08:28:31.505Z,1220
2017-08-10T08:29:32.945Z,1268
2017-08-10T08:30:34.380Z,1308
2017-08-10T08:31:35.812Z,1376
2017-08-10T08:32:37.241Z,1392
2017-08-10T08:33:38.673Z,1400
2017-08-10T08:34:40.102Z,1416
2017-08-10T08:35:41.537Z,1440
2017-08-10T08:36:42.966Z,1436
2017-08-10T08:37:44.400Z,1440
2017-08-10T08:38:45.829Z,1460
2017-08-10T08:39:47.264Z,1460
2017-08-10T08:40:48.692Z,1428
2017-08-10T08:41:50.122Z,1380
2017-08-10T08:42:51.572Z,1312
2017-08-10T08:43:53.002Z,1264
2017-08-10T08:44:54.430Z,1224
2017-08-10T08:45:55.927Z,1176
2017-08-10T08:46:57.361Z,1156
2017-08-10T08:47:58.793Z,1160
2017-08-10T08:49:00.226Z,1144
2017-08-10T08:50:01.660Z,1132
2017-08-10T08:51:03.092Z,1140
2017-08-10T08:52:04.530Z,1124
2017-08-10T08:53:05.980Z,1104
2017-08-10T08:54:07.421Z,1112
2017-08-10T08:55:08.854Z,1152
2017-08-10T08:56:10.290Z,1212
2017-08-10T08:57:11.764Z,1264
2017-08-10T08:58:13.225Z,1292
2017-08-10T08:59:14.772Z,1296
2017-08-10T09:00:16.211Z,1276
2017-08-10T09:01:17.643Z,1252
2017-08-10T09:02:19.073Z,1256
2017-08-10T09:03:20.502Z,1276
2017-08-10T09:04:21.940Z,1256
2017-08-10T09:05:23.366Z,1196
2017-08-10T09:06:24.799Z,1124
2017-08-10T09:07:26.239Z,1032
2017-08-10T09:08:27.691Z,940
2017-08-10T09:09:29.115Z,832
2017-08-10T09:10:30.546Z,760
2017-08-10T09:11:31.993Z,720
2017-08-10T09:12:33.429Z,700
2017-08-10T09:13:34.863Z,700
2017-08-10T09:14:36.288Z,692
2017-08-10T09:15:37.725Z,680
2017-08-10T09:16:39.173Z,660
2017-08-10T09:17:40.594Z,612
2017-08-10T09:18:42.041Z,560
2017-08-10T09:19:43.556Z,520
2017-08-10T09:20:44.995Z,496
2017-08-10T09:21:46.423Z,492
2017-08-10T09:22:47.893Z,504
2017-08-10T09:23:49.331Z,540
2017-08-10T09:24:50.757Z,600
2017-08-10T09:25:52.185Z,620
2017-08-10T09:26:53.618Z,632
2017-08-10T09:27:55.045Z,668
2017-08-10T09:28:56.478Z,728
2017-08-10T09:29:57.909Z,836
2017-08-10T09:30:59.382Z,956
2017-08-10T09:32:00.787Z,1056
2017-08-10T09:33:02.226Z,1152
2017-08-10T09:34:03.660Z,1272
2017-08-10T09:35:05.091Z,1380
2017-08-10T09:36:06.520Z,1472
2017-08-10T09:37:07.955Z,1520
2017-08-10T09:38:09.382Z,1552
2017-08-10T09:39:10.810Z,1592
2017-08-10T09:40:12.248Z,1584
2017-08-10T09:41:13.679Z,1576
2017-08-10T09:42:15.106Z,1592
2017-08-10T09:43:16.710Z,1580
2017-08-10T09:44:18.129Z,1548
2017-08-10T09:45:19.561Z,1544
2017-08-10T09:46:20.994Z,1568
2017-08-10T09:47:22.423Z,1584
2017-08-10T09:48:23.854Z,1588
2017-08-10T09:49:25.286Z,1588
2017-08-10T09:50:26.750Z,1580
2017-08-10T09:51:28.179Z,1604
2017-08-10T09:52:29.610Z,1636
2017-08-10T09:53:31.048Z,1680
2017-08-10T09:54:32.481Z,1720
2017-08-10T09:55:33.916Z,1764
2017-08-10T09:56:35.349Z,1812
2017-08-10T09:57:36.785Z,1844
2017-08-10T09:58:38.220Z,1852
2017-08-10T09:59:39.663Z,1884
2017-08-10T10:00:41.089Z,1896
2017-08-10T10:01:42.526Z,1920
2017-08-10T10:02:43.961Z,1880
2017-08-10T10:03:45.398Z,1880
2017-08-10T10:04:46.833Z,1840
2017-08-10T10:05:48.264Z,1856
2017-08-10T10:06:49.698Z,1880
2017-08-10T10:07:51.134Z,1916
2017-08-10T10:08:52.570Z,1920
2017-08-10T10:09:54.005Z,1988
2017-08-10T10:10:55.446Z,1988
2017-08-10T10:11:56.883Z,2000
2017-08-10T10:12:58.311Z,1984
2017-08-10T10:13:59.742Z,1988
2017-08-10T10:15:01.182Z,1992
2017-08-10T10:16:02.642Z,1960
2017-08-10T10:17:04.076Z,1940
2017-08-10T10:18:05.504Z,1920
2017-08-10T10:19:06.939Z,1836
2017-08-10T10:20:08.367Z,1788
2017-08-10T10:21:09.812Z,1800
2017-08-10T10:22:11.251Z,1848
2017-08-10T10:23:12.680Z,760
2017-08-10T10:24:14.113Z,2000
2017-08-10T10:25:15.545Z,2148
2017-08-10T10:26:16.975Z,2276
2017-08-10T10:27:18.406Z,2368
2017-08-10T10:28:19.840Z,2372
2017-08-10T10:29:21.273Z,2232
2017-08-10T10:30:22.706Z,2088
2017-08-10T10:31:24.135Z,1896
2017-08-10T10:32:25.563Z,1700
2017-08-10T10:33:26.995Z,1500
2017-08-10T10:34:28.433Z,1364
2017-08-10T10:35:29.864Z,1348
2017-08-10T10:36:31.300Z,1416
2017-08-10T10:37:32.733Z,1428
2017-08-10T10:38:34.166Z,1328
2017-08-10T10:39:35.595Z,1184
2017-08-10T10:40:37.028Z,1040
2017-08-10T10:41:38.465Z,936
2017-08-10T10:42:39.890Z,884
2017-08-10T10:43:41.343Z,872
2017-08-10T10:44:42.765Z,888
2017-08-10T10:45:44.200Z,916
2017-08-10T10:46:45.641Z,928
2017-08-10T10:47:47.075Z,948
2017-08-10T10:48:48.500Z,1000
2017-08-10T10:49:49.931Z,1028
2017-08-10T10:50:51.360Z,1064
2017-08-10T10:51:52.789Z,1088
2017-08-10T10:52:54.221Z,1100
2017-08-10T10:53:55.648Z,1188
2017-08-10T10:54:57.075Z,1328
2017-08-10T10:55:58.699Z,1428
2017-08-10T10:57:00.124Z,1492
2017-08-10T10:58:01.558Z,1504
2017-08-10T10:59:02.987Z,1496
2017-08-10T11:00:04.564Z,1444
2017-08-10T11:01:06.065Z,1312
2017-08-10T11:02:07.496Z,1140
2017-08-10T11:03:08.936Z,952
2017-08-10T11:04:10.375Z,828
2017-08-10T11:05:11.800Z,772
2017-08-10T11:06:13.233Z,764
2017-08-10T11:07:14.670Z,804
2017-08-10T11:08:16.107Z,884
2017-08-10T11:09:17.555Z,964
2017-08-10T11:10:18.981Z,1032
2017-08-10T11:11:20.412Z,1068
2017-08-10T11:12:21.848Z,1100
2017-08-10T11:13:23.281Z,1092
2017-08-10T11:14:24.713Z,1048
2017-08-10T11:15:26.140Z,988
2017-08-10T11:16:27.583Z,956
2017-08-10T11:17:29.011Z,916
2017-08-10T11:18:30.441Z,868
2017-08-10T11:19:31.872Z,836
2017-08-10T11:20:33.305Z,836
2017-08-10T11:21:34.727Z,388
2017-08-10T11:22:36.175Z,868
2017-08-10T11:23:37.601Z,888
2017-08-10T11:24:39.033Z,892
2017-08-10T11:25:40.467Z,904
2017-08-10T11:26:41.890Z,908
2017-08-10T11:27:43.322Z,916
2017-08-10T11:28:44.759Z,932
2017-08-10T11:29:46.180Z,940
2017-08-10T11:30:47.606Z,932
2017-08-10T11:31:49.071Z,912
2017-08-10T11:32:50.471Z,904
2017-08-10T11:33:51.911Z,904
2017-08-10T11:34:53.344Z,904
2017-08-10T11:35:54.778Z,912
2017-08-10T11:36:56.215Z,940
2017-08-10T11:37:58.514Z,976
2017-08-10T11:38:59.978Z,996
2017-08-10T11:40:01.418Z,1008
2017-08-10T11:41:02.855Z,1012
2017-08-10T11:42:04.285Z,1000
2017-08-10T11:43:05.757Z,980
2017-08-10T11:44:07.195Z,964
2017-08-10T11:45:08.614Z,968
2017-08-10T11:46:10.062Z,964
2017-08-10T11:47:11.501Z,948
2017-08-10T11:48:12.938Z,916
2017-08-10T11:49:14.393Z,884
2017-08-10T11:50:15.826Z,840
2017-08-10T11:51:17.291Z,808
2017-08-10T11:52:18.723Z,792
2017-08-10T11:53:20.155Z,804
2017-08-10T11:54:21.631Z,836
2017-08-10T11:55:23.060Z,340
2017-08-10T11:56:24.513Z,928
2017-08-10T11:57:25.925Z,944
2017-08-10T11:58:27.364Z,940
2017-08-10T11:59:28.796Z,916
2017-08-10T12:00:30.229Z,884
2017-08-10T12:01:31.660Z,856
2017-08-10T12:02:33.096Z,848
2017-08-10T12:03:34.532Z,856
2017-08-10T12:04:36.041Z,880
2017-08-10T12:05:37.471Z,908
2017-08-10T12:06:38.899Z,928
2017-08-10T12:07:40.330Z,932
2017-08-10T12:08:41.763Z,936
2017-08-10T12:09:43.226Z,928
2017-08-10T12:10:44.663Z,904
2017-08-10T12:11:46.124Z,880
2017-08-10T12:12:47.590Z,876
2017-08-10T12:13:49.023Z,900
2017-08-10T12:14:50.464Z,908
2017-08-10T12:15:51.895Z,928
2017-08-10T12:16:53.342Z,952
2017-08-10T12:17:54.773Z,1028
2017-08-10T12:18:56.199Z,1156
2017-08-10T12:19:57.632Z,1332
2017-08-10T12:20:59.062Z,1408
2017-08-10T12:22:00.488Z,1376
2017-08-10T12:23:01.926Z,1324
2017-08-10T12:24:03.358Z,1272
2017-08-10T12:25:04.790Z,1256
2017-08-10T12:26:06.217Z,1276
2017-08-10T12:27:07.656Z,1316
2017-08-10T12:28:09.077Z,1360
2017-08-10T12:29:10.507Z,1384
2017-08-10T12:30:11.940Z,1396
2017-08-10T12:31:13.376Z,1344
2017-08-10T12:32:14.819Z,1272
2017-08-10T12:33:16.246Z,1196
2017-08-10T12:34:17.681Z,1112
2017-08-10T12:35:19.111Z,1056
2017-08-10T12:36:20.542Z,1008
2017-08-10T12:37:21.972Z,708
2017-08-10T12:38:23.409Z,716
2017-08-10T12:39:24.828Z,996
2017-08-10T12:40:26.264Z,1000
2017-08-10T12:41:27.693Z,1004
2017-08-10T12:42:29.122Z,1016
2017-08-10T12:43:30.575Z,984
2017-08-10T12:44:32.001Z,1024
2017-08-10T12:45:33.435Z,1000
2017-08-10T12:46:34.863Z,968
2017-08-10T12:47:36.289Z,924
2017-08-10T12:48:37.731Z,900
2017-08-10T12:49:39.186Z,868
2017-08-10T12:50:40.615Z,848
2017-08-10T12:51:42.050Z,840
2017-08-10T12:52:43.481Z,828
2017-08-10T12:53:44.902Z,816
2017-08-10T12:54:46.325Z,812
2017-08-10T12:55:47.760Z,796
2017-08-10T12:56:49.191Z,764
2017-08-10T12:57:50.619Z,740
2017-08-10T12:58:52.053Z,700
2017-08-10T12:59:53.481Z,672
2017-08-10T13:00:54.913Z,644
2017-08-10T13:01:56.342Z,616
2017-08-10T13:02:57.771Z,592
2017-08-10T13:03:59.202Z,572
2017-08-10T13:05:00.636Z,572
2017-08-10T13:06:02.068Z,600
2017-08-10T13:07:03.495Z,640
2017-08-10T13:08:04.924Z,712
2017-08-10T13:09:06.349Z,768
2017-08-10T13:10:07.785Z,808
2017-08-10T13:11:09.215Z,836
2017-08-10T13:12:10.645Z,856
2017-08-10T13:13:12.074Z,888
2017-08-10T13:14:13.524Z,964
2017-08-10T13:15:14.958Z,1032
2017-08-10T13:16:16.388Z,1072
2017-08-10T13:17:17.825Z,1108
2017-08-10T13:18:19.252Z,1144
2017-08-10T13:19:20.693Z,1212
2017-08-10T13:20:22.127Z,1288
2017-08-10T13:21:23.557Z,1352
2017-08-10T13:22:24.990Z,1384
2017-08-10T13:23:26.418Z,1396
2017-08-10T13:24:27.840Z,1376
2017-08-10T13:25:29.279Z,1336
2017-08-10T13:26:30.713Z,1248
2017-08-10T13:27:32.146Z,1132
2017-08-10T13:28:34.064Z,1036
2017-08-10T13:29:34.944Z,988
2017-08-10T13:30:36.372Z,988
2017-08-10T13:31:37.806Z,972
2017-08-10T13:32:39.285Z,960
2017-08-10T13:33:40.723Z,996
2017-08-10T13:34:42.163Z,1048
2017-08-10T13:35:43.590Z,1084
2017-08-10T13:36:45.037Z,1108
2017-08-10T13:37:46.478Z,1136
2017-08-10T13:38:47.902Z,1172
2017-08-10T13:39:49.337Z,1188
2017-08-10T13:40:50.761Z,1200
2017-08-10T13:41:52.194Z,1204
2017-08-10T13:42:53.626Z,1200
2017-08-10T13:43:55.057Z,1180
2017-08-10T13:44:56.490Z,1164
2017-08-10T13:45:57.926Z,1168
2017-08-10T13:46:59.369Z,1136
2017-08-10T13:48:00.802Z,1088
2017-08-10T13:49:02.229Z,1044
2017-08-10T13:50:03.657Z,1012
2017-08-10T13:51:05.100Z,988
2017-08-10T13:52:06.525Z,972
2017-08-10T13:53:07.954Z,952
2017-08-10T13:54:09.378Z,928
2017-08-10T13:55:10.812Z,892
2017-08-10T13:56:12.265Z,844
2017-08-10T13:57:13.697Z,780
2017-08-10T13:58:15.121Z,748
2017-08-10T13:59:16.550Z,648
2017-08-10T14:00:17.983Z,892
2017-08-10T14:01:19.410Z,1016
2017-08-10T14:02:20.847Z,1108
2017-08-10T14:03:22.282Z,1140
2017-08-10T14:04:23.734Z,1140
2017-08-10T14:05:25.163Z,1144
2017-08-10T14:06:26.609Z,1136
2017-08-10T14:07:28.044Z,1084
2017-08-10T14:08:29.471Z,996
2017-08-10T14:09:30.898Z,892
2017-08-10T14:10:32.336Z,808
2017-08-10T14:11:33.759Z,760
2017-08-10T14:12:35.195Z,740
2017-08-10T14:13:36.624Z,740
2017-08-10T14:14:38.050Z,752
2017-08-10T14:15:39.834Z,752